createdAt,value
2022-11-17T00:00:08.241Z,100.00
2022-11-17T00:02:37.410Z,100.00
2022-11-17T00:05:06.352Z,100.00
2022-11-17T00:07:35.603Z,100.00
2022-11-17T00:10:03.256Z,100.00
2022-11-17T00:12:48.244Z,100.00
2022-11-17T00:15:15.862Z,100.00
2022-11-17T00:17:43.746Z,100.00
2022-11-17T00:20:29.885Z,100.00
2022-11-17T00:22:58.836Z,100.00
2022-11-17T00:25:26.544Z,100.00
2022-11-17T00:27:54.374Z,100.00
2022-11-17T00:30:43.605Z,100.00
2022-11-17T00:33:28.784Z,100.00
2022-11-17T00:35:56.471Z,100.00
2022-11-17T00:38:25.463Z,100.00
2022-11-17T00:40:53.014Z,100.00
2022-11-17T00:43:20.653Z,100.00
2022-11-17T00:45:48.391Z,100.00
2022-11-17T00:48:16.743Z,100.00
2022-11-17T00:50:44.301Z,100.00
2022-11-17T00:53:12.299Z,100.00
2022-11-17T00:55:41.599Z,100.00
2022-11-17T00:58:09.190Z,100.00
2022-11-17T01:00:36.785Z,100.00
2022-11-17T01:03:04.338Z,100.00
2022-11-17T01:05:33.267Z,100.00
2022-11-17T01:08:00.941Z,100.00
2022-11-17T01:10:28.470Z,100.00
2022-11-17T01:12:57.374Z,100.00
2022-11-17T01:15:24.953Z,100.00
2022-11-17T01:17:52.620Z,100.00
2022-11-17T01:20:20.474Z,100.00
2022-11-17T01:22:48.060Z,100.00
2022-11-17T01:25:15.640Z,100.00
2022-11-17T01:27:43.201Z,100.00
2022-11-17T01:30:13.701Z,100.00
2022-11-17T01:32:41.242Z,100.00
2022-11-17T01:35:09.715Z,100.00
2022-11-17T01:37:37.315Z,100.00
2022-11-17T01:40:05.606Z,100.00
2022-11-17T01:42:33.184Z,100.00
2022-11-17T01:45:03.151Z,100.00
2022-11-17T01:47:36.665Z,100.00
2022-11-17T01:50:08.792Z,100.00
2022-11-17T01:52:38.450Z,100.00
2022-11-17T01:55:08.418Z,100.00
2022-11-17T01:57:40.567Z,100.00
2022-11-17T02:00:10.814Z,100.00
2022-11-17T02:02:40.864Z,100.00
2022-11-17T02:05:20.959Z,100.00
2022-11-17T02:07:50.932Z,100.00
2022-11-17T02:10:18.829Z,100.00
2022-11-17T02:12:46.876Z,100.00
2022-11-17T02:15:14.472Z,100.00
2022-11-17T02:17:44.720Z,100.00
2022-11-17T02:20:14.537Z,100.00
2022-11-17T02:23:08.513Z,100.00
2022-11-17T02:25:46.317Z,100.00
2022-11-17T02:28:20.620Z,100.00
2022-11-17T02:30:56.998Z,100.00
2022-11-17T02:33:29.751Z,100.00
2022-11-17T02:36:03.488Z,100.00
2022-11-17T02:38:34.198Z,100.00
2022-11-17T02:41:06.262Z,100.00
2022-11-17T02:43:55.667Z,100.00
2022-11-17T02:46:24.674Z,100.00
2022-11-17T02:48:56.205Z,100.00
2022-11-17T02:51:25.606Z,100.00
2022-11-17T02:53:54.850Z,100.00
2022-11-17T02:56:22.618Z,100.00
2022-11-17T02:58:52.801Z,100.00
2022-11-17T03:01:46.370Z,100.00
2022-11-17T03:04:40.863Z,100.00
2022-11-17T03:07:22.745Z,100.00
2022-11-17T03:09:55.239Z,100.00
2022-11-17T03:12:25.964Z,100.00
2022-11-17T03:14:59.878Z,100.00
2022-11-17T03:17:31.103Z,100.00
2022-11-17T03:20:03.259Z,100.00
2022-11-17T03:22:34.714Z,100.00
2022-11-17T03:25:04.516Z,100.00
2022-11-17T03:27:33.841Z,100.00
2022-11-17T03:30:05.955Z,100.00
2022-11-17T03:32:37.586Z,100.00
2022-11-17T03:35:08.158Z,100.00
2022-11-17T03:37:37.694Z,100.00
2022-11-17T03:40:08.695Z,100.00
2022-11-17T03:42:38.196Z,100.00
2022-11-17T03:45:12.500Z,100.00
2022-11-17T03:47:40.254Z,100.00
2022-11-17T03:50:12.071Z,100.00
2022-11-17T03:52:39.817Z,100.00
2022-11-17T03:55:08.937Z,100.00
2022-11-17T03:57:39.651Z,100.00
2022-11-17T04:00:10.959Z,100.00
2022-11-17T04:02:41.784Z,100.00
2022-11-17T04:05:09.904Z,100.00
2022-11-17T04:07:40.096Z,100.00
2022-11-17T04:10:09.771Z,100.00
2022-11-17T04:12:55.065Z,100.00
2022-11-17T04:15:47.150Z,100.00
2022-11-17T04:18:15.099Z,100.00
2022-11-17T04:20:43.172Z,100.00
2022-11-17T04:23:13.968Z,100.00
2022-11-17T04:26:00.995Z,100.00
2022-11-17T04:28:38.291Z,100.00
2022-11-17T04:31:12.497Z,100.00
2022-11-17T04:33:41.429Z,100.00
2022-11-17T04:36:09.948Z,100.00
2022-11-17T04:38:37.814Z,100.00
2022-11-17T04:41:24.897Z,100.00
2022-11-17T04:43:52.814Z,100.00
2022-11-17T04:46:23.095Z,100.00
2022-11-17T04:48:51.314Z,100.00
2022-11-17T04:51:18.861Z,100.00
2022-11-17T04:53:47.179Z,100.00
2022-11-17T04:56:15.048Z,100.00
2022-11-17T04:58:43.020Z,100.00
2022-11-17T05:01:13.888Z,100.00
2022-11-17T05:03:44.615Z,100.00
2022-11-17T05:06:13.475Z,100.00
2022-11-17T05:08:41.356Z,100.00
2022-11-17T05:11:27.613Z,100.00
2022-11-17T05:13:55.422Z,100.00
2022-11-17T05:16:41.476Z,100.00
2022-11-17T05:19:12.530Z,100.00
2022-11-17T05:21:40.147Z,100.00
2022-11-17T05:24:07.629Z,100.00
2022-11-17T05:26:37.174Z,100.00
2022-11-17T05:29:06.599Z,100.00
2022-11-17T05:31:34.725Z,100.00
2022-11-17T05:34:03.000Z,100.00
2022-11-17T05:36:32.278Z,100.00
2022-11-17T05:39:03.161Z,100.00
2022-11-17T05:41:30.826Z,100.00
2022-11-17T05:43:59.026Z,100.00
2022-11-17T05:46:27.092Z,100.00
2022-11-17T05:48:54.941Z,100.00
2022-11-17T05:51:24.293Z,100.00
2022-11-17T05:53:53.189Z,100.00
2022-11-17T05:56:29.497Z,100.00
2022-11-17T05:59:01.902Z,100.00
2022-11-17T06:01:30.326Z,100.00
2022-11-17T06:04:00.310Z,100.00
2022-11-17T06:06:28.527Z,100.00
2022-11-17T06:08:57.653Z,100.00
2022-11-17T06:11:25.214Z,100.00
2022-11-17T06:13:52.820Z,100.00
2022-11-17T06:16:23.936Z,100.00
2022-11-17T06:18:54.037Z,100.00
2022-11-17T06:21:21.738Z,100.00
2022-11-17T06:23:49.787Z,100.00
2022-11-17T06:26:18.772Z,100.00
2022-11-17T06:28:48.615Z,100.00
2022-11-17T06:31:16.706Z,100.00
2022-11-17T06:33:44.958Z,100.00
2022-11-17T06:36:12.742Z,100.00
2022-11-17T06:38:40.375Z,100.00
2022-11-17T06:41:11.811Z,100.00
2022-11-17T06:43:41.178Z,100.00
2022-11-17T06:46:08.871Z,100.00
2022-11-17T06:48:36.676Z,100.00
2022-11-17T06:51:05.927Z,100.00
2022-11-17T06:53:35.015Z,100.00
2022-11-17T06:56:08.138Z,100.00
2022-11-17T06:58:37.194Z,100.00
2022-11-17T07:01:08.226Z,100.00
2022-11-17T07:03:37.192Z,100.00
2022-11-17T07:06:06.048Z,100.00
2022-11-17T07:08:34.679Z,100.00
2022-11-17T07:11:03.623Z,100.00
2022-11-17T07:13:33.226Z,100.00
2022-11-17T07:16:06.417Z,100.00
2022-11-17T07:18:34.843Z,100.00
2022-11-17T07:21:04.233Z,100.00
2022-11-17T07:23:32.217Z,100.00
2022-11-17T07:26:00.360Z,100.00
2022-11-17T07:28:28.114Z,100.00
2022-11-17T07:30:56.396Z,100.00
2022-11-17T07:33:25.405Z,100.00
2022-11-17T07:35:53.052Z,100.00
2022-11-17T07:38:20.735Z,100.00
2022-11-17T07:40:48.396Z,100.00
2022-11-17T07:43:16.048Z,100.00
2022-11-17T07:45:43.701Z,100.00
2022-11-17T07:48:11.365Z,100.00
2022-11-17T07:50:41.586Z,100.00
2022-11-17T07:53:09.317Z,100.00
2022-11-17T07:55:36.985Z,100.00
2022-11-17T07:58:04.648Z,100.00
2022-11-17T08:00:33.690Z,100.00
2022-11-17T08:03:01.782Z,100.00
2022-11-17T08:05:30.729Z,100.00
2022-11-17T08:08:00.950Z,100.00
2022-11-17T08:10:31.262Z,100.00
2022-11-17T08:13:00.785Z,100.00
2022-11-17T08:15:29.551Z,100.00
2022-11-17T08:17:58.474Z,100.00
2022-11-17T08:20:27.708Z,100.00
2022-11-17T08:22:55.395Z,100.00
2022-11-17T08:25:26.539Z,100.00
2022-11-17T08:27:56.268Z,100.00
2022-11-17T08:30:24.394Z,100.00
2022-11-17T08:32:53.835Z,100.00
2022-11-17T08:35:23.690Z,100.00
2022-11-17T08:37:51.581Z,100.00
2022-11-17T08:40:19.427Z,100.00
2022-11-17T08:42:57.541Z,100.00
2022-11-17T08:45:28.291Z,100.00
2022-11-17T08:47:57.079Z,100.00
2022-11-17T08:50:25.141Z,100.00
2022-11-17T08:52:53.490Z,100.00
2022-11-17T08:55:21.262Z,100.00
2022-11-17T08:57:50.396Z,99.20
2022-11-17T09:00:20.604Z,99.48
2022-11-17T09:02:48.488Z,98.62
2022-11-17T09:05:16.548Z,98.72
2022-11-17T09:07:44.550Z,99.72
2022-11-17T09:10:12.901Z,100.00
2022-11-17T09:12:40.676Z,96.63
2022-11-17T09:15:10.982Z,97.19
2022-11-17T09:17:40.254Z,96.85
2022-11-17T09:20:09.002Z,96.01
2022-11-17T09:22:36.651Z,96.93
2022-11-17T09:25:07.537Z,97.41
2022-11-17T09:27:39.669Z,96.86
2022-11-17T09:30:10.672Z,97.10
2022-11-17T09:32:38.329Z,97.00
2022-11-17T09:35:09.323Z,98.19
2022-11-17T09:37:37.065Z,99.13
2022-11-17T09:40:05.199Z,99.97
2022-11-17T09:42:38.802Z,100.00
2022-11-17T09:45:12.997Z,100.00
2022-11-17T09:47:44.430Z,99.97
2022-11-17T09:50:19.725Z,100.00
2022-11-17T09:52:55.564Z,100.00
2022-11-17T09:55:32.694Z,100.00
2022-11-17T09:58:08.557Z,100.00
2022-11-17T10:00:40.062Z,100.00
2022-11-17T10:03:13.276Z,100.00
2022-11-17T10:05:40.899Z,100.00
2022-11-17T10:08:10.103Z,100.00
2022-11-17T10:10:41.034Z,98.79
2022-11-17T10:13:15.644Z,98.92
2022-11-17T10:15:48.458Z,98.76
2022-11-17T10:18:17.516Z,97.95
2022-11-17T10:20:45.653Z,97.73
2022-11-17T10:23:14.996Z,96.77
2022-11-17T10:25:44.676Z,96.14
2022-11-17T10:28:25.724Z,94.13
2022-11-17T10:30:57.259Z,93.90
2022-11-17T10:33:35.402Z,94.00
2022-11-17T10:36:04.633Z,92.71
2022-11-17T10:38:33.649Z,92.84
2022-11-17T10:41:04.002Z,92.97
2022-11-17T10:43:34.209Z,92.17
2022-11-17T10:46:05.760Z,93.40
2022-11-17T10:48:35.123Z,93.29
2022-11-17T10:51:04.468Z,95.42
2022-11-17T10:53:43.012Z,95.16
2022-11-17T10:56:14.867Z,95.37
2022-11-17T10:59:03.859Z,94.39
2022-11-17T11:01:35.204Z,95.39
2022-11-17T11:04:04.273Z,93.83
2022-11-17T11:06:33.327Z,94.56
2022-11-17T11:09:02.642Z,95.22
2022-11-17T11:11:41.177Z,94.90
2022-11-17T11:14:16.690Z,95.42
2022-11-17T11:16:48.522Z,94.43
2022-11-17T11:19:18.494Z,94.78
2022-11-17T11:22:03.761Z,96.26
2022-11-17T11:24:38.575Z,96.65
2022-11-17T11:27:27.989Z,97.51
2022-11-17T11:30:02.748Z,98.65
2022-11-17T11:32:38.781Z,98.42
2022-11-17T11:35:28.405Z,98.34
2022-11-17T11:38:00.675Z,98.78
2022-11-17T11:40:30.827Z,98.97
2022-11-17T11:42:59.603Z,99.01
2022-11-17T11:45:43.800Z,97.82
2022-11-17T11:48:17.695Z,96.95
2022-11-17T11:50:53.228Z,97.47
2022-11-17T11:53:27.604Z,96.94
2022-11-17T11:56:06.583Z,96.09
2022-11-17T11:58:34.255Z,95.02
2022-11-17T12:01:05.418Z,95.19
2022-11-17T12:03:40.821Z,94.58
2022-11-17T12:06:33.527Z,94.89
2022-11-17T12:09:10.382Z,96.21
2022-11-17T12:11:57.423Z,95.72
2022-11-17T12:14:25.242Z,95.92
2022-11-17T12:17:02.062Z,96.77
2022-11-17T12:19:53.345Z,96.94
2022-11-17T12:22:53.583Z,96.19
2022-11-17T12:25:24.531Z,94.74
2022-11-17T12:27:53.722Z,94.24
2022-11-17T12:30:51.717Z,95.24
2022-11-17T12:33:19.443Z,96.16
2022-11-17T12:36:30.146Z,95.31
2022-11-17T12:38:59.344Z,93.91
2022-11-17T12:42:07.251Z,94.49
2022-11-17T12:44:49.616Z,94.11
2022-11-17T12:47:19.222Z,94.25
2022-11-17T12:49:56.417Z,94.02
2022-11-17T12:52:32.266Z,94.13
2022-11-17T12:55:04.393Z,93.21
2022-11-17T12:57:34.287Z,93.80
2022-11-17T13:00:09.848Z,93.51
2022-11-17T13:03:00.451Z,93.12
2022-11-17T13:05:30.060Z,91.99
2022-11-17T13:08:22.428Z,92.85
2022-11-17T13:10:50.414Z,92.53
2022-11-17T13:13:19.822Z,92.47
2022-11-17T13:15:50.582Z,91.99
2022-11-17T13:18:25.436Z,92.23
2022-11-17T13:20:53.111Z,91.16
2022-11-17T13:23:23.680Z,91.28
2022-11-17T13:25:52.330Z,91.88
2022-11-17T13:28:30.926Z,92.13
2022-11-17T13:30:59.260Z,92.68
2022-11-17T13:33:27.474Z,92.54
2022-11-17T13:36:10.168Z,92.50
2022-11-17T13:38:48.075Z,93.74
2022-11-17T13:41:16.836Z,93.00
2022-11-17T13:43:45.699Z,93.17
2022-11-17T13:46:13.739Z,94.45
2022-11-17T13:48:42.400Z,93.96
2022-11-17T13:51:24.567Z,93.53
2022-11-17T13:53:56.167Z,94.17
2022-11-17T13:56:32.668Z,93.12
2022-11-17T13:59:02.318Z,92.53
2022-11-17T14:01:31.526Z,93.05
2022-11-17T14:04:20.017Z,92.75
2022-11-17T14:06:59.518Z,93.12
2022-11-17T14:09:30.784Z,93.59
2022-11-17T14:11:58.827Z,94.00
2022-11-17T14:14:33.158Z,95.01
2022-11-17T14:17:11.781Z,95.67
2022-11-17T14:19:39.608Z,96.12
2022-11-17T14:22:31.050Z,97.48
2022-11-17T14:25:00.800Z,98.40
2022-11-17T14:27:40.675Z,99.07
2022-11-17T14:30:13.258Z,100.00
2022-11-17T14:32:41.037Z,100.00
2022-11-17T14:35:10.379Z,100.00
2022-11-17T14:37:38.243Z,100.00
2022-11-17T14:40:10.989Z,100.00
2022-11-17T14:42:41.287Z,100.00
2022-11-17T14:45:10.529Z,100.00
2022-11-17T14:47:38.153Z,100.00
2022-11-17T14:50:06.745Z,100.00
2022-11-17T14:52:34.522Z,100.00
2022-11-17T14:55:02.367Z,100.00
2022-11-17T14:57:31.568Z,100.00
2022-11-17T14:59:59.572Z,100.00
2022-11-17T15:02:27.269Z,100.00
2022-11-17T15:04:55.608Z,100.00
2022-11-17T15:07:23.919Z,100.00
2022-11-17T15:09:51.703Z,100.00
2022-11-17T15:12:19.371Z,100.00
2022-11-17T15:14:49.171Z,100.00
2022-11-17T15:17:17.250Z,100.00
2022-11-17T15:19:45.262Z,100.00
2022-11-17T15:22:13.012Z,100.00
2022-11-17T15:24:40.633Z,100.00
2022-11-17T15:27:08.669Z,100.00
2022-11-17T15:29:36.354Z,100.00
2022-11-17T15:32:05.586Z,100.00
2022-11-17T15:34:33.187Z,100.00
2022-11-17T15:37:00.788Z,100.00
2022-11-17T15:39:28.398Z,100.00
2022-11-17T15:41:56.001Z,100.00
2022-11-17T15:44:23.584Z,100.00
2022-11-17T15:46:51.210Z,100.00
2022-11-17T15:49:20.332Z,100.00
2022-11-17T15:51:48.003Z,100.00
2022-11-17T15:54:20.422Z,100.00
2022-11-17T15:56:49.062Z,100.00
2022-11-17T15:59:16.996Z,100.00
2022-11-17T16:01:44.913Z,100.00
2022-11-17T16:04:14.710Z,100.00
2022-11-17T16:06:45.167Z,100.00
2022-11-17T16:09:13.645Z,100.00
2022-11-17T16:11:41.637Z,100.00
2022-11-17T16:14:09.839Z,100.00
2022-11-17T16:16:39.279Z,100.00
2022-11-17T16:19:07.388Z,100.00
2022-11-17T16:21:35.302Z,100.00
2022-11-17T16:24:05.324Z,100.00
2022-11-17T16:26:33.180Z,100.00
2022-11-17T16:29:02.136Z,100.00
2022-11-17T16:31:31.850Z,100.00
2022-11-17T16:34:01.205Z,100.00
2022-11-17T16:36:35.969Z,100.00
2022-11-17T16:39:06.961Z,100.00
2022-11-17T16:41:35.872Z,100.00
2022-11-17T16:44:07.381Z,100.00
2022-11-17T16:46:35.030Z,100.00
2022-11-17T16:49:03.956Z,100.00
2022-11-17T16:51:31.623Z,100.00
2022-11-17T16:54:02.032Z,100.00
2022-11-17T16:56:31.491Z,100.00
2022-11-17T16:58:59.633Z,100.00
2022-11-17T17:01:28.596Z,100.00
2022-11-17T17:03:57.358Z,100.00
2022-11-17T17:06:25.225Z,100.00
2022-11-17T17:08:56.220Z,100.00
2022-11-17T17:11:24.172Z,100.00
2022-11-17T17:13:53.097Z,100.00
2022-11-17T17:16:21.347Z,100.00
2022-11-17T17:18:49.120Z,100.00
2022-11-17T17:21:18.076Z,100.00
2022-11-17T17:23:46.001Z,100.00
2022-11-17T17:26:16.769Z,100.00
2022-11-17T17:28:45.059Z,100.00
2022-11-17T17:31:21.063Z,100.00
2022-11-17T17:33:49.939Z,100.00
2022-11-17T17:36:19.305Z,100.00
2022-11-17T17:38:53.349Z,100.00
2022-11-17T17:41:23.898Z,100.00
2022-11-17T17:43:56.610Z,100.00
2022-11-17T17:46:26.302Z,100.00
2022-11-17T17:48:53.887Z,100.00
2022-11-17T17:51:24.851Z,100.00
2022-11-17T17:53:52.767Z,100.00
2022-11-17T17:56:21.940Z,100.00
2022-11-17T17:58:50.737Z,100.00
2022-11-17T18:01:20.479Z,100.00
2022-11-17T18:03:50.544Z,100.00
2022-11-17T18:06:20.180Z,100.00
2022-11-17T18:08:48.675Z,100.00
2022-11-17T18:11:18.147Z,100.00
2022-11-17T18:13:47.206Z,100.00
2022-11-17T18:16:16.492Z,100.00
2022-11-17T18:18:45.509Z,100.00
2022-11-17T18:21:15.376Z,100.00
2022-11-17T18:23:43.372Z,100.00
2022-11-17T18:26:12.668Z,100.00
2022-11-17T18:28:40.515Z,100.00
2022-11-17T18:31:08.889Z,100.00
2022-11-17T18:33:37.112Z,100.00
2022-11-17T18:36:06.617Z,100.00
2022-11-17T18:38:36.891Z,100.00
2022-11-17T18:41:06.407Z,100.00
2022-11-17T18:43:34.579Z,100.00
2022-11-17T18:46:04.240Z,100.00
2022-11-17T18:48:33.282Z,100.00
2022-11-17T18:51:18.764Z,100.00
2022-11-17T18:53:48.744Z,100.00
2022-11-17T18:56:17.917Z,100.00
2022-11-17T18:58:45.552Z,100.00
2022-11-17T19:01:14.777Z,100.00
2022-11-17T19:03:44.071Z,100.00
2022-11-17T19:06:12.567Z,100.00
2022-11-17T19:08:40.307Z,100.00
2022-11-17T19:11:10.653Z,100.00
2022-11-17T19:13:40.021Z,100.00
2022-11-17T19:16:10.103Z,100.00
2022-11-17T19:18:37.981Z,100.00
2022-11-17T19:21:06.730Z,100.00
2022-11-17T19:23:34.963Z,100.00
2022-11-17T19:26:05.241Z,100.00
2022-11-17T19:28:34.439Z,100.00
2022-11-17T19:31:03.175Z,100.00
2022-11-17T19:33:32.178Z,100.00
2022-11-17T19:36:03.875Z,100.00
2022-11-17T19:38:33.686Z,100.00
2022-11-17T19:41:04.883Z,100.00
2022-11-17T19:43:34.514Z,100.00
2022-11-17T19:46:03.907Z,100.00
2022-11-17T19:48:32.426Z,100.00
2022-11-17T19:51:00.888Z,100.00
2022-11-17T19:53:29.062Z,100.00
2022-11-17T19:55:57.053Z,100.00
2022-11-17T19:58:24.642Z,100.00
2022-11-17T20:00:53.687Z,100.00
2022-11-17T20:03:21.324Z,100.00
2022-11-17T20:05:48.958Z,100.00
2022-11-17T20:08:16.580Z,100.00
2022-11-17T20:10:44.307Z,100.00
2022-11-17T20:13:11.895Z,100.00
2022-11-17T20:15:39.574Z,100.00
2022-11-17T20:18:08.581Z,100.00
2022-11-17T20:20:37.548Z,100.00
2022-11-17T20:23:05.334Z,100.00
2022-11-17T20:25:33.011Z,100.00
2022-11-17T20:28:00.731Z,100.00
2022-11-17T20:30:28.496Z,100.00
2022-11-17T20:32:56.101Z,100.00
2022-11-17T20:35:25.094Z,100.00
2022-11-17T20:37:52.805Z,100.00
2022-11-17T20:40:20.403Z,100.00
2022-11-17T20:42:48.068Z,100.00
2022-11-17T20:45:15.895Z,100.00
2022-11-17T20:47:43.518Z,100.00
2022-11-17T20:50:11.109Z,100.00
2022-11-17T20:52:40.315Z,100.00
2022-11-17T20:55:08.799Z,100.00
2022-11-17T20:57:36.427Z,100.00
2022-11-17T21:00:04.800Z,100.00
2022-11-17T21:02:32.393Z,100.00
2022-11-17T21:04:59.988Z,100.00
2022-11-17T21:07:27.625Z,100.00
2022-11-17T21:09:59.446Z,100.00
2022-11-17T21:12:27.155Z,100.00
2022-11-17T21:14:54.720Z,100.00
2022-11-17T21:17:39.835Z,100.00
2022-11-17T21:20:08.148Z,100.00
2022-11-17T21:22:35.781Z,100.00
2022-11-17T21:25:05.310Z,100.00
2022-11-17T21:27:32.945Z,100.00
2022-11-17T21:30:00.520Z,100.00
2022-11-17T21:32:28.158Z,100.00
2022-11-17T21:34:57.359Z,100.00
2022-11-17T21:37:27.144Z,100.00
2022-11-17T21:39:54.890Z,100.00
2022-11-17T21:42:23.875Z,100.00
2022-11-17T21:44:51.473Z,100.00
2022-11-17T21:47:20.036Z,100.00
2022-11-17T21:49:47.663Z,100.00
2022-11-17T21:52:15.298Z,100.00
2022-11-17T21:54:42.904Z,100.00
2022-11-17T21:57:10.558Z,100.00
2022-11-17T21:59:39.555Z,100.00
2022-11-17T22:02:07.198Z,100.00
2022-11-17T22:04:34.838Z,100.00
2022-11-17T22:07:02.568Z,100.00
2022-11-17T22:09:30.340Z,100.00
2022-11-17T22:11:58.473Z,100.00
2022-11-17T22:14:26.155Z,100.00
2022-11-17T22:16:56.348Z,100.00
2022-11-17T22:19:25.488Z,100.00
2022-11-17T22:21:54.429Z,100.00
2022-11-17T22:24:22.161Z,100.00
2022-11-17T22:26:51.532Z,100.00
2022-11-17T22:29:21.068Z,100.00
2022-11-17T22:31:49.632Z,100.00
2022-11-17T22:34:19.549Z,100.00
2022-11-17T22:36:47.303Z,100.00
2022-11-17T22:39:15.325Z,100.00
2022-11-17T22:41:43.320Z,100.00
2022-11-17T22:44:13.825Z,100.00
2022-11-17T22:46:43.052Z,100.00
2022-11-17T22:49:10.939Z,100.00
2022-11-17T22:51:57.440Z,100.00
2022-11-17T22:54:25.058Z,100.00
2022-11-17T22:56:52.660Z,100.00
2022-11-17T22:59:20.811Z,100.00
2022-11-17T23:01:48.448Z,100.00
2022-11-17T23:04:16.392Z,100.00
2022-11-17T23:06:45.483Z,100.00
2022-11-17T23:09:13.862Z,100.00
2022-11-17T23:11:42.233Z,100.00
2022-11-17T23:14:15.214Z,100.00
2022-11-17T23:16:43.682Z,100.00
2022-11-17T23:19:13.648Z,100.00
2022-11-17T23:21:41.766Z,100.00
2022-11-17T23:24:12.820Z,100.00
2022-11-17T23:26:41.023Z,100.00
2022-11-17T23:29:09.283Z,100.00
2022-11-17T23:31:36.915Z,100.00
2022-11-17T23:34:12.562Z,100.00
2022-11-17T23:36:41.277Z,100.00
2022-11-17T23:39:11.022Z,100.00
2022-11-17T23:41:38.810Z,100.00
2022-11-17T23:44:06.795Z,100.00
2022-11-17T23:46:34.408Z,100.00
2022-11-17T23:49:02.121Z,100.00
2022-11-17T23:51:30.001Z,100.00
2022-11-17T23:53:59.671Z,100.00
2022-11-17T23:56:29.305Z,100.00
2022-11-17T23:58:59.624Z,100.00
